createdAt,value
2022-10-17T01:01:18.144Z,1002.591003
2022-10-17T01:01:55.339Z,1002.671265
2022-10-17T01:03:57.848Z,1002.572815
2022-10-17T07:34:32.969Z,1003.891846
2022-10-17T07:35:12.783Z,1003.878418
2022-10-17T07:36:10.915Z,1003.898132
2022-10-17T07:37:09.449Z,1003.940918
2022-10-17T07:39:01.471Z,1003.906067
2022-10-17T07:39:56.705Z,1003.949036
2022-10-17T07:40:54.391Z,1004.029846
2022-10-17T07:41:47.409Z,1003.850342
2022-10-17T07:42:49.092Z,1003.965454
2022-10-17T07:43:42.499Z,1003.997681
2022-10-17T07:44:41.394Z,1003.999451
2022-10-17T07:45:36.740Z,1003.933533
2022-10-17T07:46:34.700Z,1004.017639
2022-10-17T07:48:46.573Z,1004.033447
2022-10-17T19:33:39.781Z,1010.148071
2022-10-17T19:34:22.377Z,1010.097046
2022-10-17T19:35:22.504Z,1010.158264
2022-10-17T19:36:22.372Z,1010.18689
2022-10-17T19:37:17.833Z,1010.22467
2022-10-17T19:38:18.779Z,1010.22052
2022-10-17T19:40:19.708Z,1010.244202
2022-10-17T19:41:15.086Z,1010.253357
2022-10-17T19:42:16.493Z,1010.253967
2022-10-17T19:43:17.850Z,1010.254211
2022-10-17T19:44:17.046Z,1010.220947
2022-10-17T19:45:12.327Z,1010.263611
2022-10-17T19:46:13.319Z,1010.217651
2022-10-17T19:47:08.310Z,1010.227478
2022-10-17T19:48:04.562Z,1010.251221
2022-10-17T19:50:05.873Z,1010.345215
2022-10-17T19:51:09.830Z,1010.284363
2022-10-17T19:52:03.763Z,1010.426575
2022-10-17T19:53:07.595Z,1010.357361
2022-10-17T19:59:31.531Z,1010.330566
2022-10-17T20:00:33.384Z,1010.312805
2022-10-17T20:01:28.004Z,1010.347168
2022-10-17T20:02:33.015Z,1010.353577
2022-10-17T20:03:27.468Z,1010.343262
2022-10-17T20:04:25.657Z,1010.350647
2022-10-17T20:05:23.687Z,1010.320923
2022-10-17T20:05:28.267Z,1010.320923
2022-10-17T20:06:22.966Z,1010.387512
2022-10-17T20:07:14.973Z,1010.434998
2022-10-17T20:28:26.860Z,1010.315796
2022-10-17T20:29:26.160Z,1010.299561
2022-10-17T20:30:31.434Z,1010.292358
2022-10-17T20:31:30.500Z,1010.366577
2022-10-17T20:32:29.923Z,1010.360291
2022-10-17T20:34:27.154Z,1010.368774
2022-10-17T20:35:22.679Z,1010.364441
2022-10-17T20:36:27.821Z,1010.269714
2022-10-17T20:37:22.120Z,1010.404663
2022-10-17T20:38:26.156Z,1010.418823
2022-10-17T20:39:22.571Z,1010.346069
2022-10-17T20:40:35.337Z,1010.424683
2022-10-17T20:40:35.607Z,1010.424683
2022-10-17T20:41:23.974Z,1010.339478
2022-10-17T20:42:35.056Z,1010.425964
2022-10-17T20:44:41.921Z,1010.433655
2022-10-17T20:46:22.834Z,1010.483765
2022-10-17T20:46:29.441Z,1010.483765
2022-10-17T20:46:35.419Z,1010.483765
2022-10-17T20:47:01.192Z,1010.459045
2022-10-17T20:47:01.907Z,1010.459045
2022-10-17T20:47:02.055Z,1010.459045
2022-10-17T20:47:52.152Z,1010.557007
2022-10-17T20:48:50.721Z,1010.517944
2022-10-17T20:49:53.493Z,1010.532654
2022-10-17T20:50:49.859Z,1010.488037
2022-10-17T20:55:11.797Z,1010.449402
2022-10-17T20:58:25.604Z,1010.450439
2022-10-17T20:59:38.277Z,1010.467163
2022-10-17T21:00:37.976Z,1010.534119
2022-10-17T21:01:32.625Z,1010.503418
2022-10-17T21:02:37.826Z,1010.583496
2022-10-17T21:03:33.164Z,1010.583252
2022-10-17T21:04:45.873Z,1010.576233
2022-10-17T21:04:46.682Z,1010.576233
2022-10-17T21:04:47.347Z,1010.576233
2022-10-17T21:05:31.675Z,1010.607788
2022-10-17T23:13:20.848Z,1011.22229
2022-10-17T23:18:50.108Z,1011.214539
2022-10-17T23:39:38.092Z,1010.988342
2022-10-17T23:41:39.379Z,1011.016235
2022-10-17T23:42:39.048Z,1011.090027
2022-10-17T23:43:33.552Z,1011.10907
2022-10-17T23:45:26.348Z,1011.11499
2022-10-17T23:46:24.286Z,1011.135925
2022-10-17T23:47:18.245Z,1011.117493
2022-10-17T23:48:17.885Z,1011.150024
2022-10-17T23:50:18.496Z,1011.140442
2022-10-17T23:51:12.067Z,1011.174011
2022-10-17T23:52:11.007Z,1011.133667
2022-10-17T23:53:05.079Z,1011.164978
